Kyoto, Japan
Current Conditions -  °F | °C
As of 8:00 PM on Thursday 27 Nov 2014 (Local Time) from RJOO Reporting Station
Few Clouds Few Clouds  
Wind Chill: 52°   Ceiling: Unl
Heat Index: 52°   Visibility: 6mi
Dew Point: 41°   Wind: 5mph
Humidity: 67%   Direction: 340°NNW
Pressure: 30.24"   Gusts: NA
Location:  35.01°N, 135.75°E
Report Text: RJOO 271100Z 34004KT 300V020 9999 FEW035 11/05 Q1024 RMK 1CU035 A3026
Loading
Personal Weather Stations






























Interactive Weather Map New forecast layout! Learn more

10-Day Weather Forecast

Advertisements
Track Severe Weather on mobile